Time;durP1;ratioP1;P1;durP2;ratioP2;P2;SDS_P1;SDS_P2;PMS_P1;PMS_P2;Temp;Humidity;BMP_temperature;BMP_pressure;BME280_temperature;BME280_humidity;BME280_pressure;Samples;Min_cycle;Max_cycle;Signal;HPM_P1;HPM_P2
2022/05/27 00:01:28;;;;;;;18.80;5.00;;;;;;;14.01;100.00;101860.97;5137394;27;20027;-62
2022/05/27 00:03:56;;;;;;;17.33;4.65;;;;;;;14.01;100.00;101863.63;5140296;27;20389;-64
2022/05/27 00:06:21;;;;;;;16.25;4.50;;;;;;;14.00;100.00;101864.53;5137987;27;20027;-62
2022/05/27 00:08:47;;;;;;;17.08;5.00;;;;;;;14.01;100.00;101863.63;5133079;27;21004;-63
2022/05/27 00:11:13;;;;;;;17.15;4.70;;;;;;;13.95;100.00;101857.41;5138773;27;20035;-64
2022/05/27 00:13:39;;;;;;;15.77;4.50;;;;;;;13.87;100.00;101851.16;5136605;27;20516;-64
2022/05/27 00:16:05;;;;;;;16.77;4.90;;;;;;;13.85;100.00;101855.59;5117651;27;20039;-64
2022/05/27 00:18:31;;;;;;;16.17;4.60;;;;;;;13.86;100.00;101852.06;5142457;27;20027;-62
2022/05/27 00:20:58;;;;;;;18.30;4.90;;;;;;;13.88;100.00;101850.28;5143194;27;20019;-64
2022/05/27 00:23:24;;;;;;;16.95;4.68;;;;;;;13.89;100.00;101846.75;5143271;27;20064;-62
2022/05/27 00:25:49;;;;;;;17.10;4.72;;;;;;;13.94;100.00;101849.44;5140943;27;20506;-64
2022/05/27 00:28:14;;;;;;;18.95;4.70;;;;;;;13.98;100.00;101847.66;5138551;27;20023;-62
2022/05/27 00:30:40;;;;;;;18.48;4.93;;;;;;;13.98;100.00;101855.66;5143141;27;20031;-64
2022/05/27 00:33:05;;;;;;;18.95;4.90;;;;;;;13.94;100.00;101845.00;5143393;27;20038;-64
2022/05/27 00:35:31;;;;;;;18.50;4.70;;;;;;;13.91;100.00;101844.97;5141205;27;20064;-63
2022/05/27 00:37:57;;;;;;;18.85;4.65;;;;;;;13.88;100.00;101844.97;5140935;27;20068;-64
2022/05/27 00:40:24;;;;;;;16.17;4.57;;;;;;;13.87;100.00;101853.81;5144571;27;20428;-62
2022/05/27 00:42:50;;;;;;;19.52;4.95;;;;;;;13.88;100.00;101850.28;5143137;27;20385;-64
2022/05/27 00:45:19;;;;;;;18.95;4.82;;;;;;;13.90;100.00;101853.81;5139927;27;20045;-62
2022/05/27 00:47:47;;;;;;;18.67;4.90;;;;;;;13.92;100.00;101852.09;5140098;27;20117;-64
2022/05/27 00:50:16;;;;;;;18.67;4.95;;;;;;;13.92;100.00;101851.19;5139432;27;20058;-63
2022/05/27 00:52:43;;;;;;;19.30;5.20;;;;;;;13.89;100.00;101845.84;5141055;27;20027;-62
2022/05/27 00:55:15;;;;;;;19.40;5.03;;;;;;;13.94;100.00;101844.13;5140630;27;20026;-62
2022/05/27 00:57:46;;;;;;;20.52;5.10;;;;;;;13.85;100.00;101839.63;5132885;27;20019;-64
2022/05/27 01:00:16;;;;;;;16.90;4.90;;;;;;;13.72;100.00;101835.13;5144033;27;20027;-62
2022/05/27 01:02:42;;;;;;;20.08;5.38;;;;;;;13.62;100.00;101841.25;5140520;27;20483;-62
2022/05/27 01:05:10;;;;;;;20.95;5.97;;;;;;;13.54;100.00;101828.78;5141237;27;20114;-63
2022/05/27 01:07:36;;;;;;;20.00;5.72;;;;;;;13.55;100.00;101829.69;5139978;27;20049;-64
2022/05/27 01:10:05;;;;;;;20.52;5.70;;;;;;;13.57;100.00;101828.81;5139604;27;20031;-64
2022/05/27 01:13:01;;;;;;;19.00;5.93;;;;;;;13.51;100.00;101835.84;5140511;27;20069;-64
2022/05/27 01:15:49;;;;;;;21.23;6.30;;;;;;;13.37;100.00;101838.41;5137037;27;20038;-63
2022/05/27 01:20:18;;;;;;;19.35;6.40;;;;;;;13.16;100.00;101826.66;5138919;27;20050;-64
2022/05/27 01:21:25;;;;;;;22.27;6.70;;;;;;;13.02;100.00;101836.28;5141665;27;20059;-62
2022/05/27 01:24:12;;;;;;;21.23;6.82;;;;;;;13.00;100.00;101835.34;5142849;27;20027;-61
2022/05/27 01:27:07;;;;;;;24.38;6.88;;;;;;;13.04;100.00;101838.03;5096212;28;20388;-61
2022/05/27 01:30:02;;;;;;;21.27;6.95;;;;;;;13.04;100.00;101838.03;5096424;28;20058;-60
2022/05/27 01:32:42;;;;;;;21.85;7.05;;;;;;;12.93;100.00;101833.50;5052239;28;20531;-62
2022/05/27 01:35:23;;;;;;;21.08;7.35;;;;;;;12.84;100.00;101835.22;5055782;28;20479;-62
2022/05/27 01:37:54;;;;;;;23.35;8.02;;;;;;;12.74;100.00;101822.69;5061141;28;20584;-61
2022/05/27 01:40:39;;;;;;;23.02;7.97;;;;;;;12.61;100.00;101827.00;5058509;28;20035;-62
2022/05/27 01:43:15;;;;;;;22.38;8.10;;;;;;;12.65;100.00;101827.91;5053192;28;20553;-61
2022/05/27 01:46:18;;;;;;;23.70;8.30;;;;;;;12.61;100.00;101828.72;5056690;28;20028;-62
2022/05/27 01:49:06;;;;;;;25.15;9.38;;;;;;;12.48;100.00;101820.66;5054883;28;20089;-63
2022/05/27 01:51:46;;;;;;;25.73;8.68;;;;;;;12.38;100.00;101819.63;5049517;28;20028;-61
2022/05/27 01:54:18;;;;;;;24.35;10.00;;;;;;;12.31;100.00;101827.50;5057286;28;20032;-65
2022/05/27 01:56:55;;;;;;;26.63;10.35;;;;;;;12.22;100.00;101828.28;5056232;28;20036;-67
2022/05/27 02:00:00;;;;;;;27.42;10.65;;;;;;;12.17;100.00;101830.88;5050733;28;20138;-65
2022/05/27 02:02:29;;;;;;;26.05;10.20;;;;;;;12.19;100.00;101829.13;4993742;28;20042;-67
2022/05/27 02:05:00;;;;;;;26.95;10.57;;;;;;;12.19;100.00;101830.88;4995556;28;20081;-65
2022/05/27 02:07:35;;;;;;;26.35;10.82;;;;;;;12.17;100.00;101828.22;4993851;28;20038;-65
2022/05/27 02:10:06;;;;;;;26.95;11.07;;;;;;;12.14;100.00;101825.50;5036047;28;20043;-65
2022/05/27 02:13:00;;;;;;;26.52;11.40;;;;;;;12.13;100.00;101823.75;5030205;28;20045;-64
2022/05/27 02:15:37;;;;;;;28.70;11.85;;;;;;;12.09;100.00;101821.91;4971045;28;20034;-64
2022/05/27 02:18:12;;;;;;;29.40;11.65;;;;;;;12.07;100.00;101822.75;4973783;28;20086;-63
2022/05/27 02:20:44;;;;;;;28.92;12.13;;;;;;;12.04;100.00;101818.28;4976371;28;20089;-62
2022/05/27 02:23:26;;;;;;;27.42;11.90;;;;;;;12.00;100.00;101835.03;4971933;28;20026;-63
2022/05/27 02:25:55;;;;;;;27.88;12.25;;;;;;;12.06;100.00;101827.19;4975671;28;20069;-63
2022/05/27 02:28:26;;;;;;;30.55;13.52;;;;;;;12.03;100.00;101829.78;4970652;28;20026;-64
2022/05/27 02:30:58;;;;;;;30.50;12.77;;;;;;;12.04;100.00;101826.25;4974773;28;20034;-64
2022/05/27 02:36:16;;;;;;;30.35;13.65;;;;;;;12.03;100.00;101821.84;4975352;28;20108;-65
2022/05/27 02:38:42;;;;;;;30.58;13.68;;;;;;;12.04;100.00;101818.28;4993220;28;20094;-66
2022/05/27 02:41:39;;;;;;;29.60;14.25;;;;;;;12.02;100.00;101820.03;5053814;28;20033;-63
2022/05/27 02:44:55;;;;;;;30.17;14.32;;;;;;;12.03;100.00;101812.13;5056599;28;20043;-64
2022/05/27 02:47:35;;;;;;;32.33;15.00;;;;;;;11.99;100.00;101810.28;5023522;28;20045;-65
2022/05/27 02:50:06;;;;;;;31.65;14.98;;;;;;;11.99;100.00;101815.59;5024522;28;20143;-65
2022/05/27 02:52:56;;;;;;;32.60;15.68;;;;;;;11.98;100.00;101821.75;5045420;28;20063;-61
2022/05/27 02:55:43;;;;;;;34.65;17.02;;;;;;;12.03;100.00;101816.53;5064541;28;20464;-62
2022/05/27 02:58:08;;;;;;;34.95;17.30;;;;;;;12.01;100.00;101813.88;5044620;28;20124;-62
2022/05/27 03:00:36;;;;;;;32.97;17.08;;;;;;;11.97;100.00;101811.13;5051343;28;20484;-62
2022/05/27 03:03:03;;;;;;;32.85;17.48;;;;;;;11.97;100.00;101798.78;5064603;28;20040;-62
2022/05/27 03:05:58;;;;;;;33.47;17.48;;;;;;;11.92;100.00;101808.38;5062950;28;20030;-62
2022/05/27 03:09:01;;;;;;;35.50;18.38;;;;;;;11.91;100.00;101803.06;5061348;28;20052;-61
2022/05/27 03:11:48;;;;;;;34.47;18.45;;;;;;;11.96;100.00;101806.72;5029549;28;20052;-61
2022/05/27 03:14:51;;;;;;;37.00;19.23;;;;;;;11.93;100.00;101796.97;5029338;28;20037;-61
2022/05/27 03:17:35;;;;;;;34.95;18.73;;;;;;;11.95;100.00;101795.22;5027438;28;20116;-61
2022/05/27 03:20:20;;;;;;;34.88;18.75;;;;;;;11.95;100.00;101807.56;5030024;28;20076;-61
2022/05/27 03:23:17;;;;;;;35.38;19.60;;;;;;;11.95;100.00;101812.88;5046406;28;20090;-61
2022/05/27 03:25:54;;;;;;;34.92;19.15;;;;;;;11.94;100.00;101805.78;5061859;28;20530;-62
2022/05/27 03:28:43;;;;;;;36.25;19.55;;;;;;;12.04;100.00;101815.63;5064346;28;20063;-66
2022/05/27 03:31:20;;;;;;;39.53;21.15;;;;;;;12.17;100.00;101814.97;5063385;28;20020;-65
2022/05/27 03:34:05;;;;;;;32.95;18.90;;;;;;;12.16;100.00;101810.53;5063407;28;20032;-66
2022/05/27 03:36:52;;;;;;;34.28;18.65;;;;;;;12.21;100.00;101807.94;5062052;28;20179;-64
2022/05/27 03:39:59;;;;;;;33.63;18.08;;;;;;;12.23;100.00;101800.00;5061141;28;20025;-64
2022/05/27 03:42:25;;;;;;;30.45;16.10;;;;;;;12.26;100.00;101818.59;4951625;28;20496;-66
2022/05/27 03:45:00;;;;;;;28.60;14.80;;;;;;;12.20;100.00;101825.59;4951348;28;20039;-67
2022/05/27 03:47:26;;;;;;;21.80;9.88;;;;;;;12.10;100.00;101820.13;4962134;28;20053;-66
2022/05/27 03:49:51;;;;;;;22.02;9.13;;;;;;;11.96;100.00;101823.50;4989645;28;20070;-65
2022/05/27 03:52:30;;;;;;;22.88;8.63;;;;;;;11.88;100.00;101816.28;5004841;28;20038;-65
2022/05/27 03:54:55;;;;;;;23.00;8.57;;;;;;;11.78;100.00;101816.16;5008958;28;20382;-65
2022/05/27 03:57:21;;;;;;;22.75;9.63;;;;;;;11.75;100.00;101810.81;5009104;28;20045;-66
2022/05/27 03:59:46;;;;;;;22.85;10.05;;;;;;;11.76;100.00;101806.38;5005672;28;20523;-65
2022/05/27 04:02:12;;;;;;;23.63;10.05;;;;;;;11.74;100.00;101813.44;5009937;28;20026;-64
2022/05/27 04:04:37;;;;;;;22.80;10.23;;;;;;;11.73;100.00;101804.56;5006753;28;20033;-65
2022/05/27 04:07:03;;;;;;;23.02;11.07;;;;;;;11.72;100.00;101807.22;5007535;28;20042;-61
2022/05/27 04:09:28;;;;;;;26.05;11.23;;;;;;;11.71;100.00;101808.06;5011351;28;20088;-61
2022/05/27 04:11:54;;;;;;;24.98;12.25;;;;;;;11.69;100.00;101813.34;5008368;28;20068;-62
2022/05/27 04:14:20;;;;;;;24.65;12.27;;;;;;;11.70;100.00;101815.13;5009055;28;20393;-61
2022/05/27 04:16:48;;;;;;;26.80;11.82;;;;;;;11.72;100.00;101818.69;5009051;28;20038;-62
2022/05/27 04:19:13;;;;;;;25.50;12.38;;;;;;;11.78;100.00;101818.78;5047128;27;20036;-63
2022/05/27 04:21:39;;;;;;;24.92;12.15;;;;;;;11.82;100.00;101820.63;5122147;27;20085;-63
2022/05/27 04:24:05;;;;;;;26.75;13.25;;;;;;;11.84;100.00;101815.34;5120185;27;20020;-62
2022/05/27 04:26:30;;;;;;;27.42;13.15;;;;;;;11.86;100.00;101819.78;5138434;27;20118;-61
2022/05/27 04:28:56;;;;;;;29.30;14.13;;;;;;;11.92;100.00;101823.41;5139722;27;20103;-61
2022/05/27 04:31:21;;;;;;;31.67;15.48;;;;;;;11.98;100.00;101823.50;5142182;27;20414;-62
2022/05/27 04:33:48;;;;;;;30.55;15.52;;;;;;;12.03;100.00;101824.47;5143480;27;20567;-61
2022/05/27 04:36:15;;;;;;;30.88;15.68;;;;;;;12.08;100.00;101830.72;5142002;27;20035;-63
2022/05/27 04:38:40;;;;;;;34.45;17.50;;;;;;;12.13;100.00;101823.75;5143320;27;20025;-62
2022/05/27 04:41:06;;;;;;;34.25;17.92;;;;;;;12.16;100.00;101821.13;5141482;27;20032;-64
2022/05/27 04:43:32;;;;;;;32.85;17.77;;;;;;;12.21;100.00;101819.41;5143965;27;20414;-65
2022/05/27 04:45:57;;;;;;;34.90;18.23;;;;;;;12.27;100.00;101818.59;5138882;27;20042;-65
2022/05/27 04:48:22;;;;;;;34.70;18.38;;;;;;;12.32;100.00;101824.88;5140208;27;20031;-66
2022/05/27 04:50:48;;;;;;;35.88;18.58;;;;;;;12.37;100.00;101817.84;5137489;27;20015;-64
2022/05/27 04:53:14;;;;;;;38.58;19.73;;;;;;;12.46;100.00;101827.66;5143546;27;20063;-65
2022/05/27 04:55:41;;;;;;;37.08;19.30;;;;;;;12.55;100.00;101826.88;5142640;27;20031;-64
2022/05/27 04:58:07;;;;;;;36.75;19.42;;;;;;;12.61;100.00;101821.69;5139157;27;20030;-65
2022/05/27 05:00:41;;;;;;;37.60;19.55;;;;;;;12.65;100.00;101834.09;5140060;27;20034;-67
2022/05/27 05:03:07;;;;;;;35.75;19.00;;;;;;;12.65;100.00;101833.19;5141393;27;20023;-64
2022/05/27 05:05:34;;;;;;;38.22;19.63;;;;;;;12.76;100.00;101831.56;5141083;27;20031;-64
2022/05/27 05:08:22;;;;;;;38.25;19.75;;;;;;;12.79;100.00;101836.03;5138905;27;20358;-64
2022/05/27 05:10:47;;;;;;;37.30;18.77;;;;;;;12.87;100.00;101835.22;5138875;27;20022;-66
2022/05/27 05:13:13;;;;;;;37.97;20.13;;;;;;;12.90;100.00;101834.34;5142099;27;20031;-64
2022/05/27 05:15:38;;;;;;;36.22;18.52;;;;;;;12.95;100.00;101837.09;5143113;27;20163;-65
2022/05/27 05:18:04;;;;;;;35.83;18.40;;;;;;;12.95;100.00;101845.91;5137855;27;20108;-64
2022/05/27 05:20:31;;;;;;;35.58;18.00;;;;;;;12.98;100.00;101842.41;5141156;27;20027;-64
2022/05/27 05:22:57;;;;;;;34.42;16.33;;;;;;;12.97;100.00;101851.25;5142264;27;20029;-64
2022/05/27 05:25:23;;;;;;;37.47;17.30;;;;;;;13.07;100.00;101847.81;5139953;27;20375;-64
2022/05/27 05:27:50;;;;;;;34.65;15.73;;;;;;;12.99;100.00;101852.13;5136101;27;20070;-66
2022/05/27 05:30:23;;;;;;;36.17;15.77;;;;;;;12.89;100.00;101859.13;5137683;27;20069;-65
2022/05/27 05:32:48;;;;;;;34.75;16.02;;;;;;;12.94;100.00;101859.19;5138476;27;20118;-64
2022/05/27 05:35:16;;;;;;;32.20;14.40;;;;;;;12.89;100.00;101865.31;5142403;27;20101;-64
2022/05/27 05:37:41;;;;;;;33.58;15.48;;;;;;;13.00;100.00;101867.19;5141253;27;20043;-65
2022/05/27 05:40:11;;;;;;;32.55;14.63;;;;;;;13.08;100.00;101865.53;5142664;27;20092;-71
2022/05/27 05:42:38;;;;;;;29.55;13.18;;;;;;;12.96;100.00;101866.28;5144779;27;20031;-69
2022/05/27 05:45:04;;;;;;;30.52;12.90;;;;;;;13.00;100.00;101870.72;5140731;27;20409;-66
2022/05/27 05:47:30;;;;;;;29.35;12.40;;;;;;;13.04;100.00;101877.84;5143818;27;20030;-69
2022/05/27 05:49:55;;;;;;;29.45;12.10;;;;;;;13.03;100.00;101877.84;5121259;27;20015;-73
2022/05/27 05:52:20;;;;;;;29.77;12.07;;;;;;;13.01;100.00;101885.78;5142519;27;20034;-73
2022/05/27 05:54:46;;;;;;;28.20;11.82;;;;;;;13.13;100.00;101884.16;5138239;27;20020;-72
2022/05/27 05:57:11;;;;;;;29.45;11.57;;;;;;;13.16;100.00;101882.41;5138957;27;20459;-69
2022/05/27 05:59:38;;;;;;;28.20;11.07;;;;;;;13.14;100.00;101886.81;5139928;27;20068;-69
2022/05/27 06:02:05;;;;;;;26.33;10.65;;;;;;;13.19;100.00;101882.44;5139370;27;20118;-72
2022/05/27 06:04:30;;;;;;;26.08;10.10;;;;;;;13.34;100.00;101879.09;5140048;27;20039;-72
2022/05/27 06:06:56;;;;;;;29.63;10.63;;;;;;;13.32;100.00;101879.91;5124170;27;20023;-72
2022/05/27 06:09:25;;;;;;;24.58;8.88;;;;;;;13.39;100.00;101871.16;5136650;27;20030;-75
2022/05/27 06:11:55;;;;;;;26.65;9.00;;;;;;;13.28;100.00;101871.03;5142129;27;20135;-73
2022/05/27 06:14:20;;;;;;;24.92;7.80;;;;;;;13.28;100.00;101876.34;5140157;27;20405;-74
2022/05/27 06:16:46;;;;;;;25.42;7.85;;;;;;;13.16;100.00;101876.22;5125565;27;20019;-71
2022/05/27 06:19:11;;;;;;;23.58;7.95;;;;;;;13.15;100.00;101880.63;5138657;27;20022;-68
2022/05/27 06:21:37;;;;;;;24.42;7.60;;;;;;;13.17;100.00;101878.88;5139841;27;20019;-75
2022/05/27 06:24:03;;;;;;;23.33;7.28;;;;;;;13.17;100.00;101884.19;5138178;27;20509;-77
2022/05/27 06:26:29;;;;;;;23.95;7.30;;;;;;;13.27;100.00;101882.53;5139791;27;20047;-67
2022/05/27 06:34:26;;;;;;;21.25;5.57;;;;;;;13.23;100.00;101886.91;5143510;27;20092;-72
2022/05/27 06:37:03;;;;;;;22.90;6.10;;;;;;;13.31;100.00;101900.28;5139721;27;20033;-69
2022/05/27 06:39:31;;;;;;;20.38;5.45;;;;;;;13.31;100.00;101899.34;5134675;27;20031;-71
2022/05/27 06:41:56;;;;;;;22.65;6.20;;;;;;;13.38;100.00;101903.88;5140693;27;20039;-69
2022/05/27 06:44:22;;;;;;;21.92;5.90;;;;;;;13.47;100.00;101903.09;5139965;27;20058;-73
2022/05/27 06:46:51;;;;;;;19.83;5.65;;;;;;;13.52;100.00;101901.38;5138170;27;20015;-73
2022/05/27 06:49:17;;;;;;;21.98;5.35;;;;;;;13.49;100.00;101898.69;5138953;27;20015;-69
2022/05/27 06:51:43;;;;;;;21.60;5.20;;;;;;;13.53;100.00;101901.38;5139291;27;20039;-74
2022/05/27 06:54:12;;;;;;;19.20;4.78;;;;;;;13.49;100.00;101888.94;5135323;27;20473;-69
2022/05/27 06:56:39;;;;;;;18.83;4.93;;;;;;;13.53;100.00;101900.50;5138191;27;20073;-70
2022/05/27 06:59:05;;;;;;;19.20;4.95;;;;;;;13.55;100.00;101904.06;5131318;27;20062;-70
2022/05/27 07:01:31;;;;;;;20.45;4.70;;;;;;;13.56;100.00;101898.75;5133836;27;20023;-73
2022/05/27 07:03:57;;;;;;;20.27;4.80;;;;;;;13.81;100.00;101906.94;5132065;27;20026;-71
2022/05/27 07:06:25;;;;;;;19.77;4.93;;;;;;;14.12;100.00;101913.38;5132420;27;20055;-72
2022/05/27 07:08:51;;;;;;;20.73;5.20;;;;;;;14.40;100.00;101912.63;5113043;27;20038;-74
2022/05/27 07:11:16;;;;;;;19.02;4.47;;;;;;;14.26;100.00;101900.13;5136553;27;20015;-73
2022/05/27 07:13:41;;;;;;;18.13;4.45;;;;;;;14.32;100.00;101911.72;5134693;27;20034;-73
2022/05/27 07:16:07;;;;;;;20.10;4.68;;;;;;;14.30;100.00;101909.91;5135316;27;20019;-68
2022/05/27 07:18:32;;;;;;;20.00;5.03;;;;;;;14.25;100.00;101913.44;5138072;27;20019;-71
2022/05/27 07:21:00;;;;;;;19.92;5.47;;;;;;;14.14;100.00;101910.72;5140015;27;20390;-70
2022/05/27 07:23:25;;;;;;;21.48;6.03;;;;;;;13.97;100.00;101912.38;5120620;28;20030;-72
2022/05/27 07:25:50;;;;;;;21.60;5.90;;;;;;;14.01;100.00;101909.75;5137691;27;20055;-71
2022/05/27 07:28:15;;;;;;;21.45;6.05;;;;;;;14.06;100.00;101917.75;5117359;27;20038;-70
2022/05/27 07:30:41;;;;;;;18.98;5.38;;;;;;;14.11;100.00;101915.97;5134061;27;20027;-71
2022/05/27 07:33:06;;;;;;;21.13;5.68;;;;;;;14.17;100.00;101918.72;5139528;27;20042;-71
2022/05/27 07:35:32;;;;;;;21.17;5.80;;;;;;;14.33;100.00;101908.16;5137596;27;20124;-71
2022/05/27 07:37:57;;;;;;;20.05;5.82;;;;;;;14.47;100.00;101906.44;5140360;27;20023;-70
2022/05/27 07:40:22;;;;;;;20.95;5.40;;;;;;;14.59;100.00;101909.19;5138118;27;20054;-64
2022/05/27 07:42:48;;;;;;;17.85;4.97;;;;;;;14.60;100.00;101913.59;5139022;27;20402;-65
2022/05/27 07:45:15;;;;;;;19.58;5.40;;;;;;;14.80;100.00;101926.16;5138437;27;20053;-66
2022/05/27 07:47:41;;;;;;;18.05;5.22;;;;;;;14.90;100.00;101925.31;5137666;27;20525;-65
2022/05/27 07:50:08;;;;;;;17.98;4.78;;;;;;;15.07;100.00;101925.38;5140171;27;20157;-66
2022/05/27 07:52:34;;;;;;;21.23;5.25;;;;;;;15.18;100.00;101935.16;5136352;27;20118;-65
2022/05/27 07:55:01;;;;;;;20.23;5.20;;;;;;;15.15;100.00;101928.03;5138964;27;20026;-68
2022/05/27 07:57:27;;;;;;;18.40;5.93;;;;;;;15.21;100.00;101930.72;5137409;27;20023;-68
2022/05/27 07:59:52;;;;;;;18.27;6.03;;;;;;;15.34;100.00;101931.63;5139107;27;20031;-66
2022/05/27 08:02:18;;;;;;;20.17;6.30;;;;;;;15.43;100.00;101939.63;5139010;27;20036;-70
2022/05/27 08:04:43;;;;;;;19.13;6.53;;;;;;;15.32;100.00;101926.31;5135922;27;20023;-66
2022/05/27 08:07:09;;;;;;;18.38;5.90;;;;;;;15.37;100.00;101931.63;5138142;27;20385;-66
2022/05/27 08:09:34;;;;;;;20.63;6.10;;;;;;;15.56;100.00;101929.88;5138401;27;20034;-67
2022/05/27 08:11:59;;;;;;;21.35;6.30;;;;;;;15.78;100.00;101927.22;5139147;27;20080;-66
2022/05/27 08:14:25;;;;;;;19.48;5.88;;;;;;;15.69;100.00;101933.44;5137145;27;20489;-64
2022/05/27 08:16:50;;;;;;;18.02;4.93;;;;;;;15.52;100.00;101946.75;5136265;27;20032;-67
2022/05/27 08:19:16;;;;;;;20.08;4.78;;;;;;;15.38;100.00;101954.75;5135220;27;20075;-65
2022/05/27 08:21:41;;;;;;;18.50;4.43;;;;;;;15.40;100.00;101954.75;5136804;27;20015;-65
2022/05/27 08:24:10;;;;;;;18.15;4.10;;;;;;;15.63;100.00;101955.66;5140122;27;20493;-63
2022/05/27 08:26:40;;;;;;;19.00;4.40;;;;;;;15.65;100.00;101952.97;5138414;27;20039;-63
2022/05/27 08:29:07;;;;;;;17.75;4.32;;;;;;;15.46;100.00;101950.28;5137046;27;20027;-63
2022/05/27 08:31:32;;;;;;;17.77;4.40;;;;;;;15.66;100.00;101947.66;5138696;27;20031;-66
2022/05/27 08:39:25;;;;;;;19.48;5.00;;;;;;;16.04;100.00;101929.91;5142096;27;20122;-65
2022/05/27 08:42:22;;;;;;;17.63;4.85;;;;;;;15.69;100.00;101950.31;5138302;27;20098;-64
2022/05/27 08:45:13;;;;;;;18.75;5.22;;;;;;;15.59;100.00;101950.31;5139475;27;20042;-65
2022/05/27 08:48:01;;;;;;;18.73;5.13;;;;;;;15.45;100.00;101960.94;5118158;27;20450;-64
2022/05/27 08:50:38;;;;;;;18.48;4.80;;;;;;;15.67;100.00;101961.88;5142268;27;20369;-67
2022/05/27 08:53:27;;;;;;;20.95;5.00;;;;;;;16.08;100.00;101961.03;5135633;27;20058;-64
2022/05/27 08:59:26;;;;;;;18.50;4.30;;;;;;;16.58;100.00;101960.94;5089278;28;20510;-68
2022/05/27 09:01:57;;;;;;;21.30;4.60;;;;;;;16.61;100.00;101955.59;5082908;28;20033;-66
2022/05/27 09:04:40;;;;;;;17.27;4.20;;;;;;;16.11;100.00;101962.81;5086601;28;20048;-65
2022/05/27 09:07:21;;;;;;;18.23;4.35;;;;;;;16.01;100.00;101957.47;5079256;28;20033;-65
2022/05/27 09:09:46;;;;;;;19.77;4.53;;;;;;;16.17;100.00;101965.47;5083330;28;20089;-65
2022/05/27 09:12:25;;;;;;;19.58;4.75;;;;;;;16.26;100.00;101965.44;5080522;28;20099;-62
2022/05/27 09:15:32;;;;;;;15.68;4.10;;;;;;;16.65;100.00;101966.25;5084469;28;20498;-65
2022/05/27 09:18:06;;;;;;;18.13;4.38;;;;;;;16.98;100.00;101974.16;5015381;28;20049;-64
2022/05/27 09:20:45;;;;;;;18.50;4.10;;;;;;;17.01;100.00;101974.16;5015252;28;20026;-67
2022/05/27 09:23:52;;;;;;;15.68;3.78;;;;;;;16.98;100.00;101975.06;5015325;28;20126;-66
2022/05/27 09:26:23;;;;;;;19.85;4.07;;;;;;;17.20;100.00;101985.66;5018860;28;20484;-64
2022/05/27 09:29:24;;;;;;;19.35;4.00;;;;;;;17.23;100.00;101980.28;5019603;28;20412;-61
2022/05/27 09:32:23;;;;;;;18.40;3.80;;;;;;;17.09;100.00;101988.34;5016850;28;20038;-64
2022/05/27 09:34:49;;;;;;;20.25;4.10;;;;;;;17.45;100.00;101983.72;4995233;28;20042;-63
2022/05/27 09:37:26;;;;;;;15.25;3.60;;;;;;;17.61;100.00;101989.84;5012343;28;20046;-63
2022/05/27 09:39:55;;;;;;;19.92;4.60;;;;;;;17.97;100.00;101987.84;5012005;28;20046;-61
2022/05/27 09:42:29;;;;;;;16.42;3.90;;;;;;;17.74;97.63;102001.34;5012391;28;20042;-63
2022/05/27 09:44:57;;;;;;;17.85;4.30;;;;;;;17.40;95.36;102004.22;5011414;28;20057;-62
2022/05/27 09:47:28;;;;;;;17.23;4.10;;;;;;;17.34;98.18;101999.81;5014826;28;20041;-64
2022/05/27 09:49:58;;;;;;;19.20;4.00;;;;;;;17.51;93.69;102001.50;5009947;28;20092;-63
2022/05/27 09:52:27;;;;;;;16.95;3.70;;;;;;;17.50;90.70;102013.09;5012052;28;20060;-62
2022/05/27 09:54:55;;;;;;;17.15;3.75;;;;;;;17.75;87.76;102013.81;5035016;28;20087;-63
2022/05/27 09:57:26;;;;;;;15.50;3.30;;;;;;;18.18;82.11;101994.78;5048666;28;20033;-63
2022/05/27 10:00:04;;;;;;;17.85;3.70;;;;;;;19.69;84.40;102008.16;5050801;28;20052;-63
2022/05/27 10:02:35;;;;;;;18.30;4.05;;;;;;;19.56;70.67;102015.50;5047718;28;20029;-62
2022/05/27 10:05:02;;;;;;;19.65;4.03;;;;;;;19.41;67.32;102008.56;5050096;28;20045;-62
2022/05/27 10:07:31;;;;;;;16.83;3.60;;;;;;;18.96;64.13;102027.91;5050621;28;20064;-64
2022/05/27 10:10:14;;;;;;;17.98;3.42;;;;;;;18.61;67.01;102017.53;5050079;28;20029;-65
2022/05/27 10:12:40;;;;;;;17.42;3.60;;;;;;;19.93;63.73;102016.75;5123200;27;20043;-63
2022/05/27 10:15:05;;;;;;;16.67;3.63;;;;;;;20.95;52.74;102017.63;5137214;27;20023;-64
2022/05/27 10:17:36;;;;;;;18.85;3.67;;;;;;;20.83;50.68;102006.19;5138727;27;20386;-62
2022/05/27 10:20:22;;;;;;;15.55;3.38;;;;;;;21.29;50.60;102003.44;5137621;27;20057;-64
2022/05/27 10:23:03;;;;;;;18.15;3.55;;;;;;;21.00;45.57;102023.78;5137977;27;20019;-61
2022/05/27 10:25:42;;;;;;;19.40;3.60;;;;;;;20.05;49.36;102016.53;5136866;27;20039;-64
2022/05/27 10:28:10;;;;;;;17.95;3.92;;;;;;;19.05;53.00;102005.47;5134958;27;20074;-61
2022/05/27 10:30:39;;;;;;;18.20;3.90;;;;;;;18.79;53.18;102003.97;5133326;27;20023;-63
2022/05/27 10:33:23;;;;;;;18.60;3.88;;;;;;;20.26;53.40;102014.44;5136051;27;20023;-64
2022/05/27 10:35:51;;;;;;;17.40;3.75;;;;;;;21.12;46.62;102022.66;5140555;27;20031;-62
2022/05/27 10:38:35;;;;;;;18.10;3.70;;;;;;;20.45;50.62;102005.13;5138789;27;20442;-62
2022/05/27 10:41:15;;;;;;;17.38;3.70;;;;;;;21.76;47.25;102013.16;5125074;27;20045;-63
2022/05/27 10:44:24;;;;;;;20.33;3.95;;;;;;;20.89;50.04;102016.81;5136549;27;20084;-63
2022/05/27 10:46:55;;;;;;;20.35;4.00;;;;;;;20.55;48.89;102019.28;5007002;28;20620;-62
2022/05/27 10:50:05;;;;;;;15.52;3.40;;;;;;;22.18;43.86;102028.28;5014306;28;20029;-65
2022/05/27 10:52:31;;;;;;;18.67;3.65;;;;;;;21.70;41.27;102009.75;4918697;29;20036;-63
2022/05/27 10:55:10;;;;;;;15.03;3.40;;;;;;;21.95;42.30;102015.41;4917470;29;20072;-65
2022/05/27 11:03:26;;;;;;;18.75;3.60;;;;;;;22.73;35.95;102014.28;4916261;29;20515;-63
2022/05/27 11:06:03;;;;;;;19.20;3.75;;;;;;;21.86;38.56;102015.63;4918016;29;20032;-67
2022/05/27 11:08:33;;;;;;;19.40;3.67;;;;;;;21.24;38.54;102017.00;4916600;29;20068;-63
2022/05/27 11:11:36;;;;;;;19.67;3.63;;;;;;;20.90;40.36;102009.66;4919151;29;20420;-67
2022/05/27 11:17:24;;;;;;;18.50;3.70;;;;;;;19.17;43.07;102033.91;4917095;29;20074;-62
2022/05/27 11:19:55;;;;;;;18.75;4.13;;;;;;;19.95;41.41;102025.66;4922299;29;20041;-64
2022/05/27 11:22:48;;;;;;;17.92;4.00;;;;;;;21.76;40.41;102017.66;4918980;28;20123;-68
2022/05/27 11:25:50;;;;;;;18.15;3.22;;;;;;;22.39;36.40;102012.50;5035032;28;20040;-65
2022/05/27 11:28:40;;;;;;;13.37;3.33;;;;;;;21.74;38.33;102017.69;5132107;27;20034;-68
2022/05/27 11:31:26;;;;;;;18.27;3.75;;;;;;;20.60;41.20;102013.81;5139570;27;20466;-65
2022/05/27 11:34:07;;;;;;;18.83;3.78;;;;;;;19.35;43.42;102019.38;5135534;27;20024;-62
2022/05/27 11:37:09;;;;;;;19.27;4.00;;;;;;;18.84;47.36;102027.13;5136970;27;20084;-61
2022/05/27 11:40:10;;;;;;;15.10;3.50;;;;;;;19.81;44.56;102026.78;5129443;27;20031;-67
2022/05/27 11:42:44;;;;;;;17.55;3.83;;;;;;;21.73;38.71;102023.13;5139203;27;20445;-62
2022/05/27 11:45:28;;;;;;;20.17;3.70;;;;;;;22.18;40.09;102044.44;5139898;27;20121;-65
2022/05/27 11:48:09;;;;;;;18.20;3.75;;;;;;;21.96;38.31;102013.56;5136263;27;20032;-63
2022/05/27 11:51:05;;;;;;;19.33;3.80;;;;;;;23.84;37.01;102036.09;5137980;27;20491;-68
2022/05/27 11:53:55;;;;;;;20.15;3.50;;;;;;;23.70;35.42;102034.78;5133579;27;20035;-68
2022/05/27 11:56:34;;;;;;;16.23;3.33;;;;;;;24.07;33.81;102028.22;5137615;27;20110;-63
2022/05/27 11:59:11;;;;;;;19.17;3.47;;;;;;;24.35;31.85;102037.13;5135574;27;20028;-70
2022/05/27 12:01:41;;;;;;;18.27;3.40;;;;;;;23.57;32.48;102040.56;5118348;28;20023;-64